Time;durP1;ratioP1;P1;durP2;ratioP2;P2;SDS_P1;SDS_P2;PMS_P1;PMS_P2;Temp;Humidity;BMP_temperature;BMP_pressure;BME280_temperature;BME280_humidity;BME280_pressure;Samples;Min_cycle;Max_cycle;Signal;HPM_P1;HPM_P2
2022/12/15 00:39:15;;;;;;;17.63;7.78;;;-2.00;99.90;;;;;;5033237;28;20091;-60
2022/12/15 00:41:42;;;;;;;17.50;7.53;;;-2.00;99.90;;;;;;5040933;28;20428;-61
2022/12/15 00:44:09;;;;;;;22.52;9.52;;;-2.00;99.90;;;;;;5044736;28;20123;-58
2022/12/15 00:46:53;;;;;;;15.80;7.45;;;-2.00;99.90;;;;;;5033373;28;20412;-60
2022/12/15 01:22:26;;;;;;;21.65;8.68;;;-2.20;99.90;;;;;;5045271;28;20672;-61
2022/12/15 01:24:53;;;;;;;17.85;10.82;;;-2.20;99.90;;;;;;5051893;28;20099;-62
2022/12/15 01:27:20;;;;;;;19.58;10.52;;;-2.20;99.90;;;;;;5051732;28;20032;-62
2022/12/15 01:29:46;;;;;;;17.10;8.82;;;-2.20;99.90;;;;;;5051782;28;20080;-62
2022/12/15 01:32:13;;;;;;;27.67;9.65;;;-2.20;99.90;;;;;;5051964;28;20507;-61
2022/12/15 01:34:40;;;;;;;16.88;9.40;;;-2.20;99.90;;;;;;5051932;28;20480;-61
2022/12/15 01:37:06;;;;;;;18.27;7.93;;;-2.20;99.90;;;;;;5049912;28;20116;-61
2022/12/15 01:42:18;;;;;;;16.40;7.07;;;-2.30;99.90;;;;;;5033108;28;20048;-62
2022/12/15 01:44:45;;;;;;;15.68;7.97;;;-2.30;99.90;;;;;;5033191;28;20069;-62
2022/12/15 01:47:12;;;;;;;12.88;7.50;;;-2.40;99.90;;;;;;5033421;28;20115;-62
2022/12/15 01:49:39;;;;;;;18.10;7.68;;;-2.40;99.90;;;;;;5032837;28;20033;-62
2022/12/15 01:52:06;;;;;;;16.45;7.85;;;-2.50;99.90;;;;;;5031135;28;20140;-62
2022/12/15 01:54:33;;;;;;;14.27;7.78;;;-2.50;99.90;;;;;;5033074;28;20128;-62
2022/12/15 01:56:59;;;;;;;20.40;8.02;;;-2.50;99.90;;;;;;5032873;28;20041;-62
2022/12/15 01:59:26;;;;;;;14.90;7.93;;;-2.50;99.90;;;;;;5032850;28;20154;-62
2022/12/15 02:01:53;;;;;;;18.45;7.60;;;-2.60;99.90;;;;;;5032541;28;20201;-62
2022/12/15 02:04:20;;;;;;;12.98;6.93;;;-2.60;99.90;;;;;;5033593;28;20465;-62
2022/12/15 02:06:46;;;;;;;18.33;8.43;;;-2.60;99.90;;;;;;5032257;28;20057;-62
2022/12/15 02:09:13;;;;;;;18.20;7.57;;;-2.50;99.90;;;;;;5032357;28;20041;-62
2022/12/15 02:11:40;;;;;;;14.90;7.85;;;-2.60;99.90;;;;;;5031115;28;20520;-62
2022/12/15 02:14:07;;;;;;;14.48;7.63;;;-2.60;99.90;;;;;;5032178;28;20141;-62
2022/12/15 02:16:33;;;;;;;21.00;8.13;;;-2.60;99.90;;;;;;5036631;28;20080;-62
2022/12/15 02:19:00;;;;;;;13.52;7.88;;;-2.60;99.90;;;;;;5052389;28;20045;-62
2022/12/15 02:21:27;;;;;;;14.25;7.32;;;-2.60;99.90;;;;;;5052221;28;20147;-61
2022/12/15 02:23:54;;;;;;;15.90;7.18;;;-2.60;99.90;;;;;;5052348;28;20128;-61
2022/12/15 02:26:20;;;;;;;17.27;8.65;;;-2.60;99.90;;;;;;5052133;28;20127;-62
2022/12/15 02:28:47;;;;;;;15.52;7.78;;;-2.60;99.90;;;;;;5052324;28;20065;-62
2022/12/15 02:34:00;;;;;;;15.35;7.43;;;-2.70;99.90;;;;;;5050566;28;20099;-61
2022/12/15 02:36:26;;;;;;;13.10;7.75;;;-2.70;99.90;;;;;;5050344;28;20041;-61
2022/12/15 02:38:53;;;;;;;14.20;6.97;;;-2.70;99.90;;;;;;5050401;28;20075;-62
2022/12/15 02:41:20;;;;;;;16.27;7.60;;;-2.70;99.90;;;;;;5052289;28;20041;-62
2022/12/15 02:43:46;;;;;;;13.70;7.70;;;-2.70;99.90;;;;;;5051940;28;20515;-61
2022/12/15 02:46:15;;;;;;;18.40;8.75;;;-2.70;99.90;;;;;;5052794;28;20123;-61
2022/12/15 02:48:42;;;;;;;19.85;8.25;;;-2.80;99.90;;;;;;5051141;28;20049;-62
2022/12/15 02:51:09;;;;;;;13.88;7.47;;;-2.80;99.90;;;;;;5049011;28;20037;-62
2022/12/15 02:53:35;;;;;;;18.75;7.88;;;-2.80;99.90;;;;;;5033974;28;20154;-62
2022/12/15 02:56:02;;;;;;;19.38;7.70;;;-2.90;99.90;;;;;;5052550;28;20073;-62
2022/12/15 02:58:29;;;;;;;14.60;7.68;;;-2.90;99.90;;;;;;5050715;28;20037;-62
2022/12/15 03:00:56;;;;;;;13.85;7.88;;;-2.90;99.90;;;;;;5052051;28;20041;-61
2022/12/15 03:03:22;;;;;;;15.98;7.90;;;-2.90;99.90;;;;;;5052318;28;20068;-62
2022/12/15 03:05:52;;;;;;;13.23;7.03;;;-2.90;99.90;;;;;;5053546;28;20053;-62
2022/12/15 03:08:19;;;;;;;13.20;7.63;;;-2.90;99.90;;;;;;5036950;28;20049;-62
2022/12/15 03:10:46;;;;;;;15.52;7.35;;;-3.00;99.90;;;;;;5036115;28;20050;-61
2022/12/15 03:13:13;;;;;;;15.13;7.68;;;-3.00;99.90;;;;;;5034237;28;20060;-62
2022/12/15 03:15:40;;;;;;;16.38;7.35;;;-3.00;99.90;;;;;;5036713;28;20423;-61
2022/12/15 03:18:06;;;;;;;14.90;8.27;;;-3.00;99.90;;;;;;5036214;28;20103;-62
2022/12/15 03:20:34;;;;;;;15.15;7.47;;;-3.10;99.90;;;;;;5035661;28;20045;-60
2022/12/15 03:23:00;;;;;;;14.25;8.18;;;-3.10;99.90;;;;;;5034483;28;20111;-62
2022/12/15 03:25:27;;;;;;;17.23;9.27;;;-3.20;99.90;;;;;;5035295;28;20492;-62
2022/12/15 03:27:54;;;;;;;18.08;8.77;;;-3.20;99.90;;;;;;5035622;28;20041;-61
2022/12/15 03:30:20;;;;;;;16.17;8.27;;;-3.10;99.90;;;;;;5035309;28;20048;-62
2022/12/15 03:32:47;;;;;;;16.98;8.98;;;-3.10;99.90;;;;;;5053285;28;20041;-61
2022/12/15 03:35:14;;;;;;;19.10;8.13;;;-3.10;99.90;;;;;;5052901;28;20423;-61
2022/12/15 03:37:41;;;;;;;20.33;7.97;;;-3.10;99.90;;;;;;5054401;28;20083;-62
2022/12/15 03:40:08;;;;;;;16.50;7.82;;;-3.10;99.90;;;;;;5055044;28;20049;-61
2022/12/15 03:42:47;;;;;;;16.55;7.93;;;-3.20;99.90;;;;;;5054038;28;20157;-62
2022/12/15 03:45:14;;;;;;;16.35;7.22;;;-3.20;99.90;;;;;;5055341;28;20392;-61
2022/12/15 03:47:40;;;;;;;15.32;7.60;;;-3.20;99.90;;;;;;5053461;28;20090;-62
2022/12/15 03:50:08;;;;;;;15.52;7.50;;;-3.20;99.90;;;;;;5054042;28;20132;-62
2022/12/15 03:52:34;;;;;;;18.17;8.65;;;-3.20;99.90;;;;;;5051501;28;20041;-62
2022/12/15 03:55:01;;;;;;;20.17;8.07;;;-3.20;99.90;;;;;;5035064;28;20393;-62
2022/12/15 03:57:28;;;;;;;17.00;7.78;;;-3.20;99.90;;;;;;5035014;28;20120;-61
2022/12/15 03:59:55;;;;;;;14.82;7.53;;;-3.20;99.90;;;;;;5035016;28;20065;-62
2022/12/15 04:02:21;;;;;;;20.73;7.85;;;-3.20;99.90;;;;;;5034898;28;20068;-61
2022/12/15 04:04:48;;;;;;;15.15;8.00;;;-3.20;99.90;;;;;;5035047;28;20405;-61
2022/12/15 04:07:15;;;;;;;13.88;7.38;;;-3.30;99.90;;;;;;5044794;28;20099;-61
2022/12/15 04:09:42;;;;;;;18.00;7.97;;;-3.30;99.90;;;;;;5054954;28;20041;-62
2022/12/15 04:12:08;;;;;;;19.83;8.45;;;-3.30;99.90;;;;;;5054557;28;20361;-62
2022/12/15 04:14:41;;;;;;;16.65;8.40;;;-3.30;99.90;;;;;;5053261;28;20068;-61
2022/12/15 04:17:08;;;;;;;17.17;8.48;;;-3.40;99.90;;;;;;5052804;28;20144;-61
2022/12/15 04:22:20;;;;;;;14.38;7.53;;;-3.40;99.90;;;;;;5034815;28;20370;-60
2022/12/15 05:33:54;;;;;;;19.23;8.23;;;-3.70;99.90;;;;;;5033222;28;20037;-61
2022/12/15 05:36:30;;;;;;;;;;;-3.70;99.90;;;;;;5050392;28;20076;-60
2022/12/15 05:38:56;;;;;;;14.20;7.50;;;-3.80;99.90;;;;;;5038514;28;20372;-61
2022/12/15 05:41:23;;;;;;;18.25;8.52;;;-3.80;99.90;;;;;;5033479;28;20383;-61
2022/12/15 05:43:50;;;;;;;16.52;7.85;;;-3.80;99.90;;;;;;5033055;28;20084;-62
2022/12/15 05:46:17;;;;;;;16.40;9.02;;;-3.80;99.90;;;;;;5033350;28;20088;-61
2022/12/15 05:48:43;;;;;;;16.02;7.57;;;-3.80;99.90;;;;;;5033015;28;20069;-62
2022/12/15 05:51:10;;;;;;;16.45;7.30;;;-3.80;99.90;;;;;;5033672;28;20056;-61
2022/12/15 05:53:37;;;;;;;16.77;8.27;;;-3.80;99.90;;;;;;5033107;28;20111;-61
2022/12/15 05:56:04;;;;;;;14.65;7.57;;;-3.80;99.90;;;;;;5033062;28;20489;-62
2022/12/15 05:58:30;;;;;;;16.27;7.53;;;-3.80;99.90;;;;;;5032814;28;20064;-62
2022/12/15 06:00:57;;;;;;;13.65;7.57;;;-3.90;99.90;;;;;;5035082;28;20433;-62
2022/12/15 06:03:24;;;;;;;16.88;8.07;;;-3.90;99.90;;;;;;5032557;28;20167;-60
2022/12/15 06:05:50;;;;;;;18.33;7.05;;;-3.90;99.90;;;;;;5033041;28;20096;-61
2022/12/15 06:08:22;;;;;;;14.65;8.15;;;-4.00;99.90;;;;;;5052575;28;20045;-60
2022/12/15 06:10:49;;;;;;;15.45;8.75;;;-4.00;99.90;;;;;;5037936;28;20078;-61
2022/12/15 06:13:16;;;;;;;13.23;7.65;;;-4.00;99.90;;;;;;5033002;28;20037;-61
2022/12/15 06:15:43;;;;;;;15.23;7.65;;;-4.00;99.90;;;;;;5031232;28;20496;-61
2022/12/15 06:18:09;;;;;;;12.32;8.07;;;-3.90;99.90;;;;;;5033033;28;20045;-61
2022/12/15 06:20:36;;;;;;;17.13;8.68;;;-4.00;99.90;;;;;;5033290;28;20043;-61
2022/12/15 06:23:03;;;;;;;16.63;8.48;;;-4.00;99.90;;;;;;5032938;28;20111;-61
2022/12/15 06:25:29;;;;;;;17.15;8.30;;;-4.00;99.90;;;;;;5038914;28;20049;-62
2022/12/15 06:27:56;;;;;;;17.98;9.77;;;-4.00;99.90;;;;;;5035331;28;20049;-61
2022/12/15 06:30:27;;;;;;;14.43;8.35;;;-4.00;99.90;;;;;;5033105;28;20499;-62
2022/12/15 06:32:54;;;;;;;16.33;8.32;;;-4.00;99.90;;;;;;5032508;28;20049;-60
2022/12/15 06:35:20;;;;;;;18.20;8.05;;;-4.00;99.90;;;;;;5030819;28;20125;-60
2022/12/15 06:37:47;;;;;;;16.15;7.95;;;-4.00;99.90;;;;;;5034285;28;20042;-59
2022/12/15 06:40:14;;;;;;;13.95;7.57;;;-4.00;99.90;;;;;;5038781;28;20056;-61
2022/12/15 06:42:41;;;;;;;16.40;8.20;;;-4.00;99.90;;;;;;5036245;28;20048;-62
2022/12/15 06:45:07;;;;;;;13.93;8.15;;;-4.00;99.90;;;;;;5036353;28;20045;-61
2022/12/15 06:47:34;;;;;;;15.00;8.82;;;-4.00;99.90;;;;;;5036970;28;20438;-61
2022/12/15 06:50:01;;;;;;;15.48;7.90;;;-4.10;99.90;;;;;;5036266;28;20575;-61
2022/12/15 06:52:27;;;;;;;18.95;7.90;;;-4.10;99.90;;;;;;5036062;28;20049;-61
2022/12/15 06:54:54;;;;;;;21.80;8.13;;;-4.10;99.90;;;;;;5037365;28;20045;-62
2022/12/15 06:57:21;;;;;;;17.60;8.07;;;-4.10;99.90;;;;;;5036760;28;20078;-62
2022/12/15 06:59:48;;;;;;;17.90;7.55;;;-4.10;99.90;;;;;;5036588;28;20713;-61
2022/12/15 07:02:14;;;;;;;16.08;8.85;;;-4.10;99.90;;;;;;5037373;28;20045;-61
2022/12/15 07:04:41;;;;;;;17.23;8.20;;;-4.10;99.90;;;;;;5036529;28;20436;-61
2022/12/15 07:07:08;;;;;;;14.82;7.00;;;-4.10;99.90;;;;;;5053793;28;20049;-62
2022/12/15 07:09:35;;;;;;;15.32;8.55;;;-4.10;99.90;;;;;;5035966;28;20132;-62
2022/12/15 07:12:02;;;;;;;17.13;8.48;;;-4.10;99.90;;;;;;5037780;28;20045;-59
2022/12/15 07:14:28;;;;;;;17.92;9.40;;;-4.10;99.90;;;;;;5036103;28;20076;-61
2022/12/15 07:16:55;;;;;;;18.45;10.60;;;-4.10;99.90;;;;;;5039036;28;20052;-62
2022/12/15 07:19:22;;;;;;;18.73;10.10;;;-4.20;99.90;;;;;;5035961;28;20322;-62
2022/12/15 07:21:49;;;;;;;18.13;9.73;;;-4.20;99.90;;;;;;5035954;28;20080;-59
2022/12/15 07:24:15;;;;;;;21.45;9.85;;;-4.20;99.90;;;;;;5035694;28;20095;-60
2022/12/15 07:26:43;;;;;;;15.82;8.88;;;-4.20;99.90;;;;;;5038502;28;20041;-62
2022/12/15 07:29:10;;;;;;;24.17;10.10;;;-4.20;99.90;;;;;;5037761;28;20488;-62
2022/12/15 07:31:37;;;;;;;21.95;10.48;;;-4.20;99.90;;;;;;5037212;28;20045;-61
2022/12/15 07:34:04;;;;;;;17.42;9.93;;;-4.30;99.90;;;;;;5052953;28;20128;-62
2022/12/15 07:36:31;;;;;;;19.13;9.90;;;-4.20;99.90;;;;;;5050242;28;20037;-61
2022/12/15 07:38:59;;;;;;;21.92;11.10;;;-4.20;99.90;;;;;;5041702;28;20037;-61
2022/12/15 07:41:31;;;;;;;15.60;9.30;;;-4.30;99.90;;;;;;5053168;28;20045;-62
2022/12/15 07:43:57;;;;;;;15.88;8.35;;;-4.30;99.90;;;;;;5039127;28;20068;-62
2022/12/15 07:46:25;;;;;;;20.58;9.25;;;-4.30;99.90;;;;;;5049915;28;20556;-62
2022/12/15 07:48:52;;;;;;;15.77;9.05;;;-4.30;99.90;;;;;;5049194;28;20041;-61
2022/12/15 07:51:20;;;;;;;17.83;9.35;;;-4.30;99.90;;;;;;5040553;28;20034;-61
2022/12/15 07:53:48;;;;;;;19.13;10.27;;;-4.30;99.90;;;;;;5035344;28;20103;-62
2022/12/15 07:56:15;;;;;;;14.77;8.77;;;-4.40;99.90;;;;;;5034703;28;20038;-62
2022/12/15 07:58:41;;;;;;;21.98;10.50;;;-4.40;99.90;;;;;;5033769;28;20129;-59
2022/12/15 08:01:08;;;;;;;26.25;11.15;;;-4.40;99.90;;;;;;5038652;28;20057;-61
2022/12/15 08:03:35;;;;;;;21.20;10.60;;;-4.40;99.90;;;;;;5037306;28;20042;-61
2022/12/15 08:06:03;;;;;;;26.40;11.27;;;-4.30;99.90;;;;;;5034815;28;20068;-61
2022/12/15 08:08:30;;;;;;;21.50;10.45;;;-4.40;99.90;;;;;;5035089;28;20037;-61
2022/12/15 08:10:57;;;;;;;27.70;12.02;;;-4.40;99.90;;;;;;5035089;28;20056;-60
2022/12/15 08:13:24;;;;;;;19.77;11.15;;;-4.40;99.90;;;;;;5034990;28;20081;-60
2022/12/15 08:16:11;;;;;;;19.23;10.85;;;-4.40;99.90;;;;;;5034533;28;20440;-61
2022/12/15 08:18:38;;;;;;;19.48;10.43;;;-4.50;99.90;;;;;;5034898;28;20049;-61
2022/12/15 08:21:05;;;;;;;17.42;10.45;;;-4.50;99.90;;;;;;5036975;28;20741;-60
2022/12/15 08:23:32;;;;;;;19.55;11.10;;;-4.50;99.90;;;;;;5043553;28;20052;-63
2022/12/15 08:25:59;;;;;;;17.30;9.80;;;-4.50;99.90;;;;;;5039698;28;20380;-61
2022/12/15 08:28:26;;;;;;;21.92;11.07;;;-4.50;99.90;;;;;;5036413;28;20045;-61
2022/12/15 08:30:53;;;;;;;20.70;11.20;;;-4.40;99.90;;;;;;5035088;28;20076;-61
2022/12/15 08:33:19;;;;;;;23.95;12.02;;;-4.50;99.90;;;;;;5054149;28;20106;-61
2022/12/15 08:35:46;;;;;;;21.65;12.15;;;-4.50;99.90;;;;;;5053108;28;20041;-61
2022/12/15 08:38:22;;;;;;;22.83;11.77;;;-4.40;99.90;;;;;;5054346;28;20041;-61
2022/12/15 08:40:49;;;;;;;24.42;12.32;;;-4.40;99.90;;;;;;5054143;28;20122;-58
2022/12/15 08:43:16;;;;;;;27.90;14.88;;;-4.40;99.90;;;;;;5054319;28;20111;-59
2022/12/15 08:45:43;;;;;;;32.97;18.10;;;-4.40;99.90;;;;;;5054225;28;20116;-61
2022/12/15 08:48:09;;;;;;;36.47;20.88;;;-4.30;99.90;;;;;;5054313;28;20052;-60
2022/12/15 08:50:36;;;;;;;43.22;24.10;;;-4.30;99.90;;;;;;5053691;28;20053;-60
2022/12/15 08:53:03;;;;;;;39.95;20.33;;;-4.30;99.90;;;;;;5053773;28;20071;-60
2022/12/15 08:55:49;;;;;;;41.42;22.35;;;-4.30;99.90;;;;;;5053373;28;20395;-62
2022/12/15 08:58:16;;;;;;;39.13;22.20;;;-4.20;99.90;;;;;;5053778;28;20037;-61
2022/12/15 09:00:43;;;;;;;32.17;18.75;;;-4.20;99.90;;;;;;5053746;28;20071;-60
2022/12/15 09:03:10;;;;;;;30.17;18.50;;;-4.20;99.90;;;;;;5053800;28;20055;-60
2022/12/15 09:05:36;;;;;;;29.30;16.35;;;-4.10;99.90;;;;;;5053291;28;20057;-61
2022/12/15 09:08:03;;;;;;;26.73;15.20;;;-4.20;99.90;;;;;;5053641;28;20051;-61
2022/12/15 09:10:32;;;;;;;32.08;15.18;;;-4.10;99.90;;;;;;5053772;28;20131;-62
2022/12/15 09:13:00;;;;;;;22.60;12.45;;;-4.10;99.90;;;;;;5053744;28;20178;-59
2022/12/15 09:15:27;;;;;;;19.67;10.88;;;-4.10;99.90;;;;;;5053569;28;20095;-61
2022/12/15 09:18:15;;;;;;;19.08;10.98;;;-4.00;99.90;;;;;;5052314;28;20037;-60
2022/12/15 09:20:41;;;;;;;19.98;10.55;;;-4.00;99.90;;;;;;5051863;28;20415;-60
2022/12/15 09:23:08;;;;;;;23.45;10.38;;;-4.00;99.90;;;;;;5052234;28;20520;-60
2022/12/15 09:25:35;;;;;;;20.35;10.20;;;-4.00;99.90;;;;;;5052621;28;20040;-59
2022/12/15 09:28:02;;;;;;;19.35;10.55;;;-4.00;99.90;;;;;;5052538;28;20044;-61
2022/12/15 09:30:28;;;;;;;25.08;11.73;;;-3.90;99.90;;;;;;5051261;28;20033;-61
2022/12/15 09:32:55;;;;;;;20.20;11.50;;;-3.90;99.90;;;;;;5052715;28;20108;-61
2022/12/15 09:35:22;;;;;;;20.75;10.98;;;-3.90;99.90;;;;;;5051113;28;20145;-61
2022/12/15 09:37:49;;;;;;;16.55;10.60;;;-3.80;99.90;;;;;;5053228;28;20079;-64
2022/12/15 09:40:17;;;;;;;20.67;10.82;;;-3.80;99.90;;;;;;5052486;28;20033;-62
2022/12/15 09:42:44;;;;;;;23.85;12.00;;;-3.70;99.90;;;;;;5051401;28;20127;-59
2022/12/15 09:45:11;;;;;;;23.10;11.40;;;-3.70;99.90;;;;;;5051233;28;20108;-59
2022/12/15 09:47:38;;;;;;;20.40;11.82;;;-3.60;99.90;;;;;;5051874;28;20053;-59
2022/12/15 09:50:06;;;;;;;21.48;11.30;;;-3.50;99.90;;;;;;5051641;28;20408;-59
2022/12/15 09:52:33;;;;;;;17.67;10.63;;;-3.40;99.90;;;;;;5051112;28;20049;-58
2022/12/15 09:55:02;;;;;;;16.25;9.60;;;-3.30;99.90;;;;;;5051506;28;20506;-60
2022/12/15 09:57:29;;;;;;;17.95;10.43;;;-3.20;99.90;;;;;;5052836;28;20128;-61
2022/12/15 09:59:56;;;;;;;20.30;10.98;;;-3.00;99.90;;;;;;5052890;28;20484;-60
2022/12/15 10:02:23;;;;;;;22.75;12.32;;;-2.80;99.90;;;;;;5052202;28;20103;-59
2022/12/15 10:04:50;;;;;;;17.00;10.75;;;-2.60;99.90;;;;;;5052729;28;20049;-57
2022/12/15 10:07:17;;;;;;;20.60;12.60;;;-2.60;99.90;;;;;;5052816;28;20049;-61
2022/12/15 10:09:43;;;;;;;22.60;11.82;;;-2.60;99.90;;;;;;5053208;28;20132;-59
2022/12/15 10:12:10;;;;;;;22.92;12.82;;;-2.70;99.90;;;;;;5053033;28;20055;-58
2022/12/15 10:14:37;;;;;;;22.20;12.63;;;-2.80;99.90;;;;;;5052666;28;20466;-60
2022/12/15 10:17:04;;;;;;;20.35;12.13;;;-2.80;99.90;;;;;;5052888;28;20468;-60
2022/12/15 10:19:31;;;;;;;23.25;12.68;;;-2.80;99.90;;;;;;5053175;28;20040;-59
2022/12/15 10:21:58;;;;;;;20.17;11.90;;;-2.70;99.90;;;;;;5052793;28;20049;-59
2022/12/15 10:24:25;;;;;;;22.80;12.80;;;-2.70;99.90;;;;;;5052960;28;20515;-57
2022/12/15 10:27:12;;;;;;;20.30;12.50;;;-2.70;99.90;;;;;;5052694;28;20427;-60
2022/12/15 10:29:38;;;;;;;22.23;11.90;;;-2.70;99.90;;;;;;5052415;28;20106;-58
2022/12/15 10:32:06;;;;;;;20.23;13.13;;;-2.60;99.90;;;;;;5052964;28;20063;-61
2022/12/15 10:34:32;;;;;;;21.42;13.40;;;-2.60;99.90;;;;;;5053074;28;20040;-61
2022/12/15 10:36:59;;;;;;;20.73;12.57;;;-2.50;99.90;;;;;;5052595;28;20074;-58
2022/12/15 10:39:26;;;;;;;26.10;13.90;;;-2.50;99.90;;;;;;5052777;28;20041;-60
2022/12/15 10:41:52;;;;;;;22.77;15.40;;;-2.50;99.90;;;;;;5052897;28;20040;-59
2022/12/15 10:44:19;;;;;;;33.80;20.88;;;-2.50;99.90;;;;;;5052623;28;20037;-60
2022/12/15 10:46:46;;;;;;;37.38;22.65;;;-2.40;99.90;;;;;;5052731;28;20044;-61
2022/12/15 10:49:14;;;;;;;52.72;32.22;;;-2.40;99.90;;;;;;5052630;28;20056;-61
2022/12/15 10:51:41;;;;;;;50.60;29.52;;;-2.40;99.90;;;;;;5052811;28;20045;-58
2022/12/15 10:54:14;;;;;;;38.03;26.00;;;-2.40;99.90;;;;;;5052675;28;20041;-61
2022/12/15 10:56:40;;;;;;;43.38;25.52;;;-2.30;99.90;;;;;;5031786;28;20048;-60
2022/12/15 10:59:07;;;;;;;36.17;22.83;;;-2.30;99.90;;;;;;5032315;28;20045;-61
2022/12/15 11:01:34;;;;;;;35.08;19.52;;;-2.30;99.90;;;;;;5032860;28;20038;-60
2022/12/15 11:04:01;;;;;;;27.48;18.50;;;-2.20;99.90;;;;;;5032693;28;20380;-56
2022/12/15 11:06:28;;;;;;;30.70;18.30;;;-2.20;99.90;;;;;;5013560;28;20579;-56
2022/12/15 11:08:55;;;;;;;33.33;18.88;;;-2.10;99.90;;;;;;5031059;28;20073;-60
2022/12/15 11:14:11;;;;;;;30.48;19.27;;;-2.10;99.90;;;;;;5031142;28;20171;-61
2022/12/15 11:16:37;;;;;;;31.70;19.50;;;-2.00;99.90;;;;;;5032632;28;20051;-60
2022/12/15 11:19:04;;;;;;;24.20;16.35;;;-2.00;99.90;;;;;;5032324;28;20110;-60
2022/12/15 11:21:31;;;;;;;27.73;16.83;;;-1.90;99.90;;;;;;5032084;28;20072;-61
2022/12/15 11:23:58;;;;;;;25.77;15.80;;;-1.90;99.90;;;;;;5032183;28;20124;-60
2022/12/15 11:26:24;;;;;;;29.23;16.75;;;-1.90;99.90;;;;;;5034721;28;20136;-60
2022/12/15 11:28:51;;;;;;;25.63;16.02;;;-1.90;99.90;;;;;;5035822;28;20092;-61
2022/12/15 11:31:18;;;;;;;24.85;15.60;;;-1.80;99.90;;;;;;5035710;28;20136;-61
2022/12/15 11:33:44;;;;;;;25.40;16.10;;;-1.80;99.90;;;;;;5035737;28;20065;-62
2022/12/15 11:36:14;;;;;;;25.70;15.98;;;-1.70;99.90;;;;;;5035287;28;20045;-61
2022/12/15 11:38:42;;;;;;;28.20;17.02;;;-1.70;99.90;;;;;;5035515;28;20038;-60
2022/12/15 11:41:09;;;;;;;26.38;17.08;;;-1.70;99.90;;;;;;5035515;28;20073;-61
2022/12/15 11:43:36;;;;;;;22.33;16.52;;;-1.60;99.90;;;;;;5035546;28;20034;-61
2022/12/15 11:46:03;;;;;;;29.05;16.65;;;-1.60;99.90;;;;;;5033992;28;20091;-61
2022/12/15 11:48:29;;;;;;;23.02;17.17;;;-1.60;99.90;;;;;;5035542;28;20037;-59
2022/12/15 11:50:56;;;;;;;26.95;17.58;;;-1.50;99.90;;;;;;5035509;28;20041;-59
2022/12/15 11:53:23;;;;;;;27.08;16.65;;;-1.50;99.90;;;;;;5035737;28;20044;-59
2022/12/15 11:55:50;;;;;;;21.40;15.70;;;-1.50;99.90;;;;;;5035542;28;20075;-60
2022/12/15 11:58:16;;;;;;;26.92;15.25;;;-1.40;99.90;;;;;;5035598;28;20045;-59
2022/12/15 12:00:43;;;;;;;25.23;16.15;;;-1.40;99.90;;;;;;5035535;28;20045;-58
2022/12/15 12:03:10;;;;;;;29.73;16.27;;;-1.40;99.90;;;;;;5035610;28;20037;-60
2022/12/15 12:05:37;;;;;;;26.30;16.23;;;-1.30;99.90;;;;;;5034918;28;20103;-59
2022/12/15 12:08:04;;;;;;;23.83;14.63;;;-1.30;99.90;;;;;;5036045;28;20052;-60
2022/12/15 12:10:31;;;;;;;27.05;14.60;;;-1.20;99.90;;;;;;5035297;28;20429;-59
2022/12/15 12:12:58;;;;;;;25.15;14.43;;;-1.20;99.90;;;;;;5034921;28;20046;-58
2022/12/15 12:15:24;;;;;;;26.27;19.00;;;-1.20;99.90;;;;;;5035163;28;20048;-60
2022/12/15 12:17:51;;;;;;;31.52;16.60;;;-1.10;99.90;;;;;;5034706;28;20076;-60
2022/12/15 12:20:18;;;;;;;26.42;17.13;;;-1.10;99.90;;;;;;5034532;28;20100;-60
2022/12/15 12:22:45;;;;;;;30.42;17.73;;;-1.10;99.90;;;;;;5034824;28;20037;-60
2022/12/15 12:25:16;;;;;;;23.00;16.40;;;-1.10;99.90;;;;;;5033134;28;20469;-60
2022/12/15 12:27:42;;;;;;;25.10;15.95;;;-1.10;99.90;;;;;;5034276;28;20396;-60
2022/12/15 12:30:14;;;;;;;24.63;17.77;;;-1.10;99.90;;;;;;5034811;28;20136;-60
2022/12/15 12:32:41;;;;;;;27.45;16.92;;;-1.00;99.90;;;;;;5033196;28;20522;-60
2022/12/15 12:35:07;;;;;;;22.05;14.00;;;-1.00;99.90;;;;;;5033152;28;20084;-64
2022/12/15 12:37:54;;;;;;;22.63;14.82;;;-1.00;99.90;;;;;;5033937;28;20159;-61
2022/12/15 12:40:28;;;;;;;18.02;13.23;;;-1.00;99.90;;;;;;5033038;28;20049;-62
2022/12/15 12:42:55;;;;;;;27.80;15.02;;;-1.00;99.90;;;;;;5035715;28;20068;-56
2022/12/15 12:45:22;;;;;;;19.65;11.85;;;-0.90;99.90;;;;;;5050663;28;20037;-60
2022/12/15 12:47:49;;;;;;;22.90;14.98;;;-0.90;99.90;;;;;;5040185;28;20118;-60
2022/12/15 12:50:15;;;;;;;22.42;13.35;;;-0.80;99.90;;;;;;5053042;28;20094;-57
2022/12/15 12:52:42;;;;;;;25.38;13.32;;;-0.80;99.90;;;;;;5036472;28;20128;-59
2022/12/15 12:55:09;;;;;;;22.38;12.63;;;-0.70;99.90;;;;;;5045667;28;20530;-56
2022/12/15 12:57:40;;;;;;;22.73;12.73;;;-0.70;99.90;;;;;;5052972;28;20048;-59
2022/12/15 13:00:06;;;;;;;22.98;13.75;;;-0.60;99.90;;;;;;5053107;28;20037;-59
2022/12/15 13:02:34;;;;;;;21.85;14.45;;;-0.60;99.90;;;;;;5049480;28;20065;-56
2022/12/15 13:05:03;;;;;;;23.15;14.07;;;-0.50;99.90;;;;;;5040185;28;20052;-60
2022/12/15 13:07:30;;;;;;;23.65;14.50;;;-0.40;99.90;;;;;;5046711;28;20063;-59
2022/12/15 13:09:56;;;;;;;20.30;13.80;;;-0.40;99.90;;;;;;5042607;28;20045;-54
2022/12/15 13:12:25;;;;;;;24.08;13.13;;;-0.40;99.90;;;;;;5050546;28;20480;-59
2022/12/15 13:15:11;;;;;;;24.58;14.52;;;-0.40;99.90;;;;;;5053102;28;20041;-57
2022/12/15 13:17:38;;;;;;;24.83;14.07;;;-0.40;99.90;;;;;;5033453;28;20037;-58
2022/12/15 13:20:05;;;;;;;21.55;14.52;;;-0.40;99.90;;;;;;5040214;28;20038;-56
2022/12/15 13:22:32;;;;;;;29.75;15.15;;;-0.40;99.90;;;;;;5046297;28;20103;-59
2022/12/15 13:24:59;;;;;;;20.80;14.13;;;-0.40;99.90;;;;;;5031992;28;20046;-58
2022/12/15 13:27:26;;;;;;;27.02;14.80;;;-0.30;99.90;;;;;;5033642;28;20099;-57
2022/12/15 13:29:52;;;;;;;28.20;14.02;;;-0.40;99.90;;;;;;5039643;28;20044;-56
2022/12/15 13:32:19;;;;;;;20.65;13.90;;;-0.30;99.90;;;;;;5052795;28;20048;-58
2022/12/15 13:34:46;;;;;;;24.33;14.43;;;-0.30;99.90;;;;;;5039840;28;20492;-59
2022/12/15 13:37:14;;;;;;;23.17;14.05;;;-0.30;99.90;;;;;;5037623;28;20041;-58
2022/12/15 13:39:41;;;;;;;23.60;13.38;;;-0.20;99.90;;;;;;5033559;28;20076;-61
2022/12/15 13:42:08;;;;;;;23.20;13.18;;;-0.20;99.90;;;;;;5033713;28;20068;-61
2022/12/15 13:44:54;;;;;;;25.30;14.68;;;-0.20;99.90;;;;;;5047954;28;20036;-59
2022/12/15 13:47:21;;;;;;;30.20;14.50;;;-0.10;99.90;;;;;;5049740;28;20061;-62
2022/12/15 13:49:48;;;;;;;21.35;13.77;;;-0.10;99.90;;;;;;5033247;28;20468;-60
2022/12/15 13:52:22;;;;;;;32.75;16.80;;;0.00;99.90;;;;;;5042310;28;20045;-57
2022/12/15 13:55:09;;;;;;;25.00;14.18;;;0.00;99.90;;;;;;5040601;28;20076;-58
2022/12/15 13:57:36;;;;;;;19.98;13.35;;;0.00;99.90;;;;;;5032764;28;20137;-55
2022/12/15 14:00:04;;;;;;;24.02;13.50;;;0.10;99.90;;;;;;5032577;28;20507;-57
2022/12/15 14:02:37;;;;;;;24.33;13.68;;;0.10;99.90;;;;;;5045105;28;20120;-57
2022/12/15 14:05:04;;;;;;;22.65;13.23;;;0.20;99.90;;;;;;5039260;28;20123;-59
2022/12/15 14:07:30;;;;;;;25.23;12.63;;;0.20;99.90;;;;;;5031236;28;20053;-59
2022/12/15 14:09:58;;;;;;;21.58;12.65;;;0.20;99.90;;;;;;5031514;28;20103;-57
2022/12/15 14:12:25;;;;;;;21.92;12.73;;;0.20;99.90;;;;;;5032780;28;20041;-57
2022/12/15 14:14:52;;;;;;;19.58;12.10;;;0.20;99.90;;;;;;5033439;28;20049;-59
2022/12/15 14:17:19;;;;;;;22.73;11.88;;;0.20;99.90;;;;;;5047253;28;20072;-58
2022/12/15 14:19:45;;;;;;;16.98;11.73;;;0.20;99.90;;;;;;5051565;28;20037;-61
2022/12/15 14:22:16;;;;;;;20.40;11.38;;;0.30;99.90;;;;;;5051892;28;20044;-53
2022/12/15 14:24:52;;;;;;;19.58;11.82;;;0.20;99.90;;;;;;5044060;28;20531;-58
2022/12/15 14:27:19;;;;;;;25.50;12.35;;;0.20;99.90;;;;;;5032521;28;20133;-56
2022/12/15 14:29:46;;;;;;;20.45;10.73;;;0.20;99.90;;;;;;5033325;28;20068;-56
2022/12/15 14:32:16;;;;;;;16.98;10.45;;;0.10;99.90;;;;;;5039188;28;20079;-59
2022/12/15 14:34:42;;;;;;;16.35;11.63;;;0.10;99.90;;;;;;5050299;28;20053;-58
2022/12/15 14:37:16;;;;;;;21.95;12.13;;;0.10;99.90;;;;;;5045465;28;20070;-58
2022/12/15 14:39:43;;;;;;;20.00;10.73;;;0.10;99.90;;;;;;5038484;28;20374;-59
2022/12/15 14:42:10;;;;;;;13.80;8.52;;;0.10;99.90;;;;;;5051369;28;20423;-59
2022/12/15 14:44:37;;;;;;;16.05;7.85;;;0.10;99.90;;;;;;5051271;28;20049;-59
2022/12/15 14:47:25;;;;;;;17.02;7.80;;;0.10;99.90;;;;;;5049922;28;20095;-60
2022/12/15 14:49:52;;;;;;;14.82;7.35;;;0.20;99.90;;;;;;5050986;28;20484;-57
2022/12/15 14:52:20;;;;;;;15.15;7.05;;;0.20;99.90;;;;;;5051109;28;20087;-61
2022/12/15 14:54:47;;;;;;;12.23;5.65;;;0.20;99.90;;;;;;5051010;28;20056;-56
2022/12/15 14:57:13;;;;;;;15.57;6.60;;;0.10;99.90;;;;;;5049631;28;20045;-55
2022/12/15 14:59:41;;;;;;;14.23;5.97;;;0.10;99.90;;;;;;5051150;28;20095;-59
2022/12/15 15:02:08;;;;;;;9.35;5.30;;;0.20;99.90;;;;;;5050252;28;20491;-57
2022/12/15 15:04:35;;;;;;;11.38;5.15;;;0.20;99.90;;;;;;5041310;28;20057;-58
2022/12/15 15:07:01;;;;;;;14.80;6.32;;;0.20;99.90;;;;;;5035744;28;20057;-60